sensor_id;sensor_type;location;lat;lon;timestamp;pressure;altitude;pressure_sealevel;temperature;humidity
50394;BME280;36308;46.312;25.288;2023-12-20T00:01:36;96361.66;;;-2.18;69.08
50394;BME280;36308;46.312;25.288;2023-12-20T00:04:20;96371.53;;;-2.12;69.04
50394;BME280;36308;46.312;25.288;2023-12-20T00:06:46;96351.13;;;-2.18;69.28
50394;BME280;36308;46.312;25.288;2023-12-20T00:09:11;96345.72;;;-2.25;69.25
50394;BME280;36308;46.312;25.288;2023-12-20T00:11:37;96350.19;;;-2.25;69.10
50394;BME280;36308;46.312;25.288;2023-12-20T00:14:03;96343.13;;;-2.33;69.54
50394;BME280;36308;46.312;25.288;2023-12-20T00:16:28;96351.84;;;-2.24;69.03
50394;BME280;36308;46.312;25.288;2023-12-20T00:18:54;96340.31;;;-2.31;69.27
50394;BME280;36308;46.312;25.288;2023-12-20T00:21:19;96327.81;;;-2.37;69.20
50394;BME280;36308;46.312;25.288;2023-12-20T00:23:44;96333.75;;;-2.35;69.28
50394;BME280;36308;46.312;25.288;2023-12-20T00:26:10;96338.19;;;-2.36;68.86
50394;BME280;36308;46.312;25.288;2023-12-20T00:28:35;96324.91;;;-2.42;69.27
50394;BME280;36308;46.312;25.288;2023-12-20T00:31:01;96323.88;;;-2.41;69.51
50394;BME280;36308;46.312;25.288;2023-12-20T00:33:27;96329.81;;;-2.39;69.40
50394;BME280;36308;46.312;25.288;2023-12-20T00:35:52;96319.28;;;-2.48;69.03
50394;BME280;36308;46.312;25.288;2023-12-20T00:38:18;96315.34;;;-2.52;69.42
50394;BME280;36308;46.312;25.288;2023-12-20T00:40:43;96310.09;;;-2.52;68.96
50394;BME280;36308;46.312;25.288;2023-12-20T00:43:09;96294.31;;;-2.60;69.50
50394;BME280;36308;46.312;25.288;2023-12-20T00:45:34;96307.47;;;-2.60;69.16
50394;BME280;36308;46.312;25.288;2023-12-20T00:48:00;96299.59;;;-2.60;68.95
50394;BME280;36308;46.312;25.288;2023-12-20T00:50:25;96289.72;;;-2.66;69.12
50394;BME280;36308;46.312;25.288;2023-12-20T00:52:51;96303.88;;;-2.59;69.36
50394;BME280;36308;46.312;25.288;2023-12-20T00:55:16;96293.38;;;-2.67;69.63
50394;BME280;36308;46.312;25.288;2023-12-20T00:57:42;96306.81;;;-2.62;69.26
50394;BME280;36308;46.312;25.288;2023-12-20T01:00:08;96290.22;;;-2.62;69.63
50394;BME280;36308;46.312;25.288;2023-12-20T01:02:36;96294.00;;;-2.65;69.20
50394;BME280;36308;46.312;25.288;2023-12-20T01:05:02;96291.53;;;-2.67;69.57
50394;BME280;36308;46.312;25.288;2023-12-20T01:07:28;96296.97;;;-2.68;69.53
50394;BME280;36308;46.312;25.288;2023-12-20T01:09:53;96277.91;;;-2.78;69.72
50394;BME280;36308;46.312;25.288;2023-12-20T01:12:19;96278.75;;;-2.70;69.70
50394;BME280;36308;46.312;25.288;2023-12-20T01:14:45;96270.50;;;-2.75;69.54
50394;BME280;36308;46.312;25.288;2023-12-20T01:17:11;96262.31;;;-2.80;69.67
50394;BME280;36308;46.312;25.288;2023-12-20T01:19:36;96281.19;;;-2.68;70.00
50394;BME280;36308;46.312;25.288;2023-12-20T01:22:02;96269.22;;;-2.79;69.64
50394;BME280;36308;46.312;25.288;2023-12-20T01:24:28;96267.38;;;-2.70;69.78
50394;BME280;36308;46.312;25.288;2023-12-20T01:26:54;96238.31;;;-2.85;69.87
50394;BME280;36308;46.312;25.288;2023-12-20T01:29:19;96245.69;;;-2.80;69.60
50394;BME280;36308;46.312;25.288;2023-12-20T01:31:45;96230.91;;;-2.90;69.48
50394;BME280;36308;46.312;25.288;2023-12-20T01:34:12;96250.63;;;-2.77;69.80
50394;BME280;36308;46.312;25.288;2023-12-20T01:36:38;96237.13;;;-2.82;69.99
50394;BME280;36308;46.312;25.288;2023-12-20T01:39:03;96237.13;;;-2.82;70.16
50394;BME280;36308;46.312;25.288;2023-12-20T01:41:29;96231.88;;;-2.82;69.85
50394;BME280;36308;46.312;25.288;2023-12-20T01:43:55;96209.22;;;-2.92;69.98
50394;BME280;36308;46.312;25.288;2023-12-20T01:46:20;96216.75;;;-2.89;70.25
50394;BME280;36308;46.312;25.288;2023-12-20T01:48:48;96212.81;;;-2.93;70.19
50394;BME280;36308;46.312;25.288;2023-12-20T01:51:14;96229.91;;;-2.80;69.80
50394;BME280;36308;46.312;25.288;2023-12-20T01:53:40;96228.59;;;-2.85;70.19
50394;BME280;36308;46.312;25.288;2023-12-20T01:56:06;96206.09;;;-2.95;70.13
50394;BME280;36308;46.312;25.288;2023-12-20T01:58:43;96191.00;;;-3.01;69.90
50394;BME280;36308;46.312;25.288;2023-12-20T02:01:10;96204.47;;;-2.96;70.07
50394;BME280;36308;46.312;25.288;2023-12-20T02:03:36;96218.41;;;-2.88;69.97
50394;BME280;36308;46.312;25.288;2023-12-20T02:06:03;96188.53;;;-3.03;70.05
50394;BME280;36308;46.312;25.288;2023-12-20T02:08:28;96204.63;;;-2.98;69.64
50394;BME280;36308;46.312;25.288;2023-12-20T02:10:55;96171.47;;;-3.07;69.82
50394;BME280;36308;46.312;25.288;2023-12-20T02:13:21;96167.34;;;-3.10;69.54
50394;BME280;36308;46.312;25.288;2023-12-20T02:15:47;96160.44;;;-3.11;70.16
50394;BME280;36308;46.312;25.288;2023-12-20T02:18:12;96169.66;;;-3.07;69.51
50394;BME280;36308;46.312;25.288;2023-12-20T02:20:41;96185.56;;;-3.00;69.51
50394;BME280;36308;46.312;25.288;2023-12-20T02:23:06;96163.72;;;-3.09;69.81
50394;BME280;36308;46.312;25.288;2023-12-20T02:25:32;96142.72;;;-3.17;70.05
50394;BME280;36308;46.312;25.288;2023-12-20T02:27:57;96144.53;;;-3.17;70.19
50394;BME280;36308;46.312;25.288;2023-12-20T02:30:23;96160.94;;;-3.07;69.62
50394;BME280;36308;46.312;25.288;2023-12-20T02:32:49;96154.69;;;-3.14;69.91
50394;BME280;36308;46.312;25.288;2023-12-20T02:35:15;96128.25;;;-3.21;69.63
50394;BME280;36308;46.312;25.288;2023-12-20T02:37:41;96139.28;;;-3.17;69.74
50394;BME280;36308;46.312;25.288;2023-12-20T02:40:06;96126.16;;;-3.26;69.80
50394;BME280;36308;46.312;25.288;2023-12-20T02:42:33;96106.47;;;-3.38;70.14
50394;BME280;36308;46.312;25.288;2023-12-20T02:44:58;96119.88;;;-3.25;69.72
50394;BME280;36308;46.312;25.288;2023-12-20T02:47:24;96115.94;;;-3.29;69.96
50394;BME280;36308;46.312;25.288;2023-12-20T02:49:49;96104.13;;;-3.33;69.90
50394;BME280;36308;46.312;25.288;2023-12-20T02:52:15;96102.03;;;-3.37;70.12
50394;BME280;36308;46.312;25.288;2023-12-20T02:54:40;96080.84;;;-3.44;70.10
50394;BME280;36308;46.312;25.288;2023-12-20T02:57:06;96119.56;;;-3.21;70.32
50394;BME280;36308;46.312;25.288;2023-12-20T02:59:34;96110.69;;;-3.29;70.31
50394;BME280;36308;46.312;25.288;2023-12-20T03:02:00;96096.41;;;-3.34;69.86
50394;BME280;36308;46.312;25.288;2023-12-20T03:04:25;96082.97;;;-3.39;70.59
50394;BME280;36308;46.312;25.288;2023-12-20T03:06:51;96085.09;;;-3.43;70.04
50394;BME280;36308;46.312;25.288;2023-12-20T03:09:16;96080.19;;;-3.38;70.11
50394;BME280;36308;46.312;25.288;2023-12-20T03:11:42;96072.31;;;-3.46;69.84
50394;BME280;36308;46.312;25.288;2023-12-20T03:14:08;96078.03;;;-3.42;70.21
50394;BME280;36308;46.312;25.288;2023-12-20T03:16:33;96067.38;;;-3.49;70.06
50394;BME280;36308;46.312;25.288;2023-12-20T03:18:59;96057.72;;;-3.57;70.15
50394;BME280;36308;46.312;25.288;2023-12-20T03:21:24;96067.72;;;-3.52;69.85
50394;BME280;36308;46.312;25.288;2023-12-20T03:23:51;96079.53;;;-3.48;70.09
50394;BME280;36308;46.312;25.288;2023-12-20T03:26:35;96089.03;;;-3.39;70.36
50394;BME280;36308;46.312;25.288;2023-12-20T03:29:00;96057.56;;;-3.63;70.30
50394;BME280;36308;46.312;25.288;2023-12-20T03:31:26;96072.16;;;-3.53;70.39
50394;BME280;36308;46.312;25.288;2023-12-20T03:33:51;96068.06;;;-3.55;70.15
50394;BME280;36308;46.312;25.288;2023-12-20T03:36:19;96052.66;;;-3.67;70.34
50394;BME280;36308;46.312;25.288;2023-12-20T03:38:45;96047.72;;;-3.70;70.19
50394;BME280;36308;46.312;25.288;2023-12-20T03:41:11;96069.22;;;-3.58;70.39
50394;BME280;36308;46.312;25.288;2023-12-20T03:43:36;96040.19;;;-3.73;70.31
50394;BME280;36308;46.312;25.288;2023-12-20T03:46:03;96048.38;;;-3.68;70.06
50394;BME280;36308;46.312;25.288;2023-12-20T03:48:30;96041.16;;;-3.74;70.14
50394;BME280;36308;46.312;25.288;2023-12-20T03:50:56;96067.09;;;-3.62;69.89
50394;BME280;36308;46.312;25.288;2023-12-20T03:53:22;96076.59;;;-3.53;70.29
50394;BME280;36308;46.312;25.288;2023-12-20T03:55:48;96049.22;;;-3.67;70.15
50394;BME280;36308;46.312;25.288;2023-12-20T03:58:13;96034.44;;;-3.76;70.13
50394;BME280;36308;46.312;25.288;2023-12-20T04:00:39;96051.66;;;-3.66;70.43
50394;BME280;36308;46.312;25.288;2023-12-20T04:03:04;96034.44;;;-3.76;70.32
50394;BME280;36308;46.312;25.288;2023-12-20T04:05:30;96046.41;;;-3.74;70.48
50394;BME280;36308;46.312;25.288;2023-12-20T04:07:55;96052.00;;;-3.69;70.16
50394;BME280;36308;46.312;25.288;2023-12-20T04:10:21;96061.84;;;-3.62;70.19
50394;BME280;36308;46.312;25.288;2023-12-20T04:12:47;96032.81;;;-3.77;70.39
50394;BME280;36308;46.312;25.288;2023-12-20T04:15:12;96023.44;;;-3.80;70.46
50394;BME280;36308;46.312;25.288;2023-12-20T04:17:38;96031.31;;;-3.80;70.12
50394;BME280;36308;46.312;25.288;2023-12-20T04:20:04;96022.63;;;-3.80;70.32
50394;BME280;36308;46.312;25.288;2023-12-20T04:22:30;96004.94;;;-3.95;70.03
50394;BME280;36308;46.312;25.288;2023-12-20T04:24:55;96037.22;;;-3.78;70.25
50394;BME280;36308;46.312;25.288;2023-12-20T04:27:21;96009.69;;;-3.90;70.51
50394;BME280;36308;46.312;25.288;2023-12-20T04:29:47;95993.47;;;-3.94;70.09
50394;BME280;36308;46.312;25.288;2023-12-20T04:32:12;96007.69;;;-3.88;70.57
50394;BME280;36308;46.312;25.288;2023-12-20T04:34:38;96002.31;;;-3.95;70.17
50394;BME280;36308;46.312;25.288;2023-12-20T04:37:03;96002.81;;;-3.91;70.29
50394;BME280;36308;46.312;25.288;2023-12-20T04:39:29;95998.88;;;-3.95;70.33
50394;BME280;36308;46.312;25.288;2023-12-20T04:41:54;95985.09;;;-3.97;70.58
50394;BME280;36308;46.312;25.288;2023-12-20T04:44:20;95995.28;;;-3.94;70.63
50394;BME280;36308;46.312;25.288;2023-12-20T04:46:46;95999.81;;;-3.88;70.51
50394;BME280;36308;46.312;25.288;2023-12-20T04:49:11;95972.47;;;-4.02;70.57
50394;BME280;36308;46.312;25.288;2023-12-20T04:51:37;95978.22;;;-3.98;70.35
50394;BME280;36308;46.312;25.288;2023-12-20T04:54:03;95981.00;;;-4.00;70.59
50394;BME280;36308;46.312;25.288;2023-12-20T04:56:29;95990.03;;;-3.94;70.55
50394;BME280;36308;46.312;25.288;2023-12-20T04:58:54;95983.75;;;-3.93;70.30
50394;BME280;36308;46.312;25.288;2023-12-20T05:01:20;95963.44;;;-4.08;70.58
50394;BME280;36308;46.312;25.288;2023-12-20T05:03:46;95963.44;;;-4.08;70.60
50394;BME280;36308;46.312;25.288;2023-12-20T05:06:12;95953.63;;;-4.14;70.46
50394;BME280;36308;46.312;25.288;2023-12-20T05:08:38;95961.63;;;-4.07;70.24
50394;BME280;36308;46.312;25.288;2023-12-20T05:11:04;95963.44;;;-4.08;70.76
50394;BME280;36308;46.312;25.288;2023-12-20T05:13:30;95960.66;;;-4.06;70.91
50394;BME280;36308;46.312;25.288;2023-12-20T05:15:55;95964.44;;;-4.00;70.79
50394;BME280;36308;46.312;25.288;2023-12-20T05:18:21;95963.75;;;-3.94;70.55
50394;BME280;36308;46.312;25.288;2023-12-20T05:20:47;95938.50;;;-4.12;70.85
50394;BME280;36308;46.312;25.288;2023-12-20T05:23:13;95946.38;;;-4.12;71.09
50394;BME280;36308;46.312;25.288;2023-12-20T05:25:39;95970.97;;;-3.96;71.17
50394;BME280;36308;46.312;25.288;2023-12-20T05:28:05;95946.38;;;-4.12;70.74
50394;BME280;36308;46.312;25.288;2023-12-20T05:30:33;95949.69;;;-4.18;70.97
50394;BME280;36308;46.312;25.288;2023-12-20T05:32:59;95967.72;;;-4.07;70.90
50394;BME280;36308;46.312;25.288;2023-12-20T05:35:24;95961.47;;;-4.06;70.88
50394;BME280;36308;46.312;25.288;2023-12-20T05:37:50;95960.16;;;-4.10;70.71
50394;BME280;36308;46.312;25.288;2023-12-20T05:40:16;95934.94;;;-4.19;70.95
50394;BME280;36308;46.312;25.288;2023-12-20T05:42:41;95940.84;;;-4.17;70.65
50394;BME280;36308;46.312;25.288;2023-12-20T05:45:07;95932.78;;;-4.23;70.67
50394;BME280;36308;46.312;25.288;2023-12-20T05:47:33;95945.59;;;-4.20;71.01
50394;BME280;36308;46.312;25.288;2023-12-20T05:49:58;95952.63;;;-4.13;70.66
50394;BME280;36308;46.312;25.288;2023-12-20T05:52:24;95934.59;;;-4.24;71.05
50394;BME280;36308;46.312;25.288;2023-12-20T05:54:49;95928.69;;;-4.26;70.86
50394;BME280;36308;46.312;25.288;2023-12-20T05:57:15;95919.88;;;-4.33;70.94
50394;BME280;36308;46.312;25.288;2023-12-20T05:59:40;95918.88;;;-4.32;70.91
50394;BME280;36308;46.312;25.288;2023-12-20T06:02:06;95919.88;;;-4.33;70.56
50394;BME280;36308;46.312;25.288;2023-12-20T06:04:32;95932.78;;;-4.23;70.58
50394;BME280;36308;46.312;25.288;2023-12-20T06:06:58;95945.44;;;-4.19;70.52
50394;BME280;36308;46.312;25.288;2023-12-20T06:09:25;95928.41;;;-4.31;70.66
50394;BME280;36308;46.312;25.288;2023-12-20T06:11:51;95944.78;;;-4.21;70.67
50394;BME280;36308;46.312;25.288;2023-12-20T06:14:17;95929.06;;;-4.29;71.07
50394;BME280;36308;46.312;25.288;2023-12-20T06:16:43;95940.50;;;-4.22;70.69
50394;BME280;36308;46.312;25.288;2023-12-20T06:19:08;95914.63;;;-4.33;70.85
50394;BME280;36308;46.312;25.288;2023-12-20T06:21:34;95919.03;;;-4.34;70.73
50394;BME280;36308;46.312;25.288;2023-12-20T06:24:00;95919.22;;;-4.35;70.81
50394;BME280;36308;46.312;25.288;2023-12-20T06:26:25;95922.50;;;-4.33;71.08
50394;BME280;36308;46.312;25.288;2023-12-20T06:28:51;95921.84;;;-4.35;70.96
50394;BME280;36308;46.312;25.288;2023-12-20T06:31:16;95908.72;;;-4.35;70.95
50394;BME280;36308;46.312;25.288;2023-12-20T06:33:43;95944.28;;;-4.16;71.30
50394;BME280;36308;46.312;25.288;2023-12-20T06:36:12;95924.13;;;-4.32;71.24
50394;BME280;36308;46.312;25.288;2023-12-20T06:38:38;95938.88;;;-4.23;70.99
50394;BME280;36308;46.312;25.288;2023-12-20T06:41:05;95927.06;;;-4.27;71.36
50394;BME280;36308;46.312;25.288;2023-12-20T06:43:31;95905.44;;;-4.37;71.17
50394;BME280;36308;46.312;25.288;2023-12-20T06:45:57;95912.13;;;-4.27;71.56
50394;BME280;36308;46.312;25.288;2023-12-20T06:48:23;95909.66;;;-4.28;71.39
50394;BME280;36308;46.312;25.288;2023-12-20T06:50:49;95899.53;;;-4.31;71.29
50394;BME280;36308;46.312;25.288;2023-12-20T06:53:14;95913.44;;;-4.22;71.44
50394;BME280;36308;46.312;25.288;2023-12-20T06:55:40;95928.16;;;-4.13;71.67
50394;BME280;36308;46.312;25.288;2023-12-20T06:58:05;95914.38;;;-4.15;71.91
50394;BME280;36308;46.312;25.288;2023-12-20T07:00:32;95931.25;;;-4.01;71.79
50394;BME280;36308;46.312;25.288;2023-12-20T07:02:58;95916.19;;;-4.08;71.93
50394;BME280;36308;46.312;25.288;2023-12-20T07:05:24;95912.25;;;-4.12;71.99
50394;BME280;36308;46.312;25.288;2023-12-20T07:07:50;95935.47;;;-3.92;72.07
50394;BME280;36308;46.312;25.288;2023-12-20T07:10:15;95904.06;;;-4.09;72.14
50394;BME280;36308;46.312;25.288;2023-12-20T07:12:41;95911.25;;;-4.02;72.24
50394;BME280;36308;46.312;25.288;2023-12-20T07:15:07;95918.75;;;-3.91;72.17
50394;BME280;36308;46.312;25.288;2023-12-20T07:17:34;95922.81;;;-3.80;72.28
50394;BME280;36308;46.312;25.288;2023-12-20T07:20:00;95930.53;;;-3.79;72.34
50394;BME280;36308;46.312;25.288;2023-12-20T07:22:45;95928.19;;;-3.74;72.59
50394;BME280;36308;46.312;25.288;2023-12-20T07:25:11;95920.63;;;-3.69;72.65
50394;BME280;36308;46.312;25.288;2023-12-20T07:27:36;95917.66;;;-3.66;72.71
50394;BME280;36308;46.312;25.288;2023-12-20T07:30:02;95911.69;;;-3.59;72.65
50394;BME280;36308;46.312;25.288;2023-12-20T07:32:27;95911.00;;;-3.53;72.87
50394;BME280;36308;46.312;25.288;2023-12-20T07:35:02;95910.31;;;-3.47;73.14
50394;BME280;36308;46.312;25.288;2023-12-20T07:37:28;95898.44;;;-3.35;73.53
50394;BME280;36308;46.312;25.288;2023-12-20T07:39:53;95900.47;;;-3.22;73.89
50394;BME280;36308;46.312;25.288;2023-12-20T07:42:19;95892.38;;;-3.12;74.15
50394;BME280;36308;46.312;25.288;2023-12-20T07:44:45;95882.59;;;-3.03;74.41
50394;BME280;36308;46.312;25.288;2023-12-20T07:47:11;95887.38;;;-2.84;74.58
50394;BME280;36308;46.312;25.288;2023-12-20T07:49:41;95890.53;;;-2.66;74.94
50394;BME280;36308;46.312;25.288;2023-12-20T07:52:06;95885.91;;;-2.49;75.09
50394;BME280;36308;46.312;25.288;2023-12-20T07:54:33;95887.75;;;-2.34;75.04
50394;BME280;36308;46.312;25.288;2023-12-20T07:56:58;95875.78;;;-2.22;75.37
50394;BME280;36308;46.312;25.288;2023-12-20T07:59:24;95881.75;;;-1.98;74.92
50394;BME280;36308;46.312;25.288;2023-12-20T08:01:49;95868.03;;;-1.94;74.80
50394;BME280;36308;46.312;25.288;2023-12-20T08:04:15;95876.81;;;-1.72;74.73
50394;BME280;36308;46.312;25.288;2023-12-20T08:06:40;95872.06;;;-1.61;74.67
50394;BME280;36308;46.312;25.288;2023-12-20T08:09:06;95866.69;;;-1.53;73.88
50394;BME280;36308;46.312;25.288;2023-12-20T08:11:31;95862.56;;;-1.41;73.89
50394;BME280;36308;46.312;25.288;2023-12-20T08:13:57;95858.56;;;-1.37;73.64
50394;BME280;36308;46.312;25.288;2023-12-20T08:16:22;95861.94;;;-1.22;73.61
50394;BME280;36308;46.312;25.288;2023-12-20T08:18:48;95857.53;;;-1.14;72.85
50394;BME280;36308;46.312;25.288;2023-12-20T08:21:13;95839.63;;;-1.19;72.79
50394;BME280;36308;46.312;25.288;2023-12-20T08:23:38;95856.47;;;-0.98;72.85
50394;BME280;36308;46.312;25.288;2023-12-20T08:26:05;95855.72;;;-0.92;73.14
50394;BME280;36308;46.312;25.288;2023-12-20T08:28:31;95848.88;;;-0.87;72.86
50394;BME280;36308;46.312;25.288;2023-12-20T08:30:56;95823.69;;;-0.89;72.70
50394;BME280;36308;46.312;25.288;2023-12-20T08:33:22;95837.19;;;-0.71;72.69
50394;BME280;36308;46.312;25.288;2023-12-20T08:35:47;95836.25;;;-0.63;72.67
50394;BME280;36308;46.312;25.288;2023-12-20T08:38:13;95815.31;;;-0.65;72.24
50394;BME280;36308;46.312;25.288;2023-12-20T08:40:39;95824.13;;;-0.51;71.94
50394;BME280;36308;46.312;25.288;2023-12-20T08:43:05;95817.47;;;-0.47;72.28
50394;BME280;36308;46.312;25.288;2023-12-20T08:45:30;95812.41;;;-0.42;71.64
50394;BME280;36308;46.312;25.288;2023-12-20T08:47:56;95809.41;;;-0.32;72.03
50394;BME280;36308;46.312;25.288;2023-12-20T08:50:21;95808.63;;;-0.26;71.52
50394;BME280;36308;46.312;25.288;2023-12-20T08:52:47;95802.16;;;-0.23;72.08
50394;BME280;36308;46.312;25.288;2023-12-20T08:55:12;95806.28;;;-0.14;71.35
50394;BME280;36308;46.312;25.288;2023-12-20T08:57:38;95793.88;;;-0.07;71.69
50394;BME280;36308;46.312;25.288;2023-12-20T09:00:04;95787.41;;;-0.04;71.71
50394;BME280;36308;46.312;25.288;2023-12-20T09:02:30;95785.19;;;0.06;71.44
50394;BME280;36308;46.312;25.288;2023-12-20T09:04:55;95779.13;;;0.12;71.46
50394;BME280;36308;46.312;25.288;2023-12-20T09:07:25;95750.03;;;0.06;71.47
50394;BME280;36308;46.312;25.288;2023-12-20T09:09:52;95759.63;;;0.20;71.33
50394;BME280;36308;46.312;25.288;2023-12-20T09:12:20;95742.97;;;0.26;71.15
50394;BME280;36308;46.312;25.288;2023-12-20T09:14:46;95729.94;;;0.25;71.58
50394;BME280;36308;46.312;25.288;2023-12-20T09:17:12;95748.91;;;0.48;70.60
50394;BME280;36308;46.312;25.288;2023-12-20T09:19:38;95745.47;;;0.54;71.25
50394;BME280;36308;46.312;25.288;2023-12-20T09:22:05;95721.84;;;0.53;70.64
50394;BME280;36308;46.312;25.288;2023-12-20T09:24:31;95731.25;;;0.69;70.69
50394;BME280;36308;46.312;25.288;2023-12-20T09:26:56;95701.50;;;0.60;71.00
50394;BME280;36308;46.312;25.288;2023-12-20T09:29:22;95714.94;;;0.78;70.73
50394;BME280;36308;46.312;25.288;2023-12-20T09:31:48;95713.72;;;0.88;70.42
50394;BME280;36308;46.312;25.288;2023-12-20T09:34:15;95709.66;;;0.92;70.36
50394;BME280;36308;46.312;25.288;2023-12-20T09:36:41;95696.19;;;0.93;70.39
50394;BME280;36308;46.312;25.288;2023-12-20T09:39:13;95682.13;;;0.99;71.12
50394;BME280;36308;46.312;25.288;2023-12-20T09:41:42;95687.81;;;1.10;70.21
50394;BME280;36308;46.312;25.288;2023-12-20T09:44:14;95671.56;;;1.06;70.84
50394;BME280;36308;46.312;25.288;2023-12-20T09:46:42;95673.16;;;1.20;70.05
50394;BME280;36308;46.312;25.288;2023-12-20T09:49:08;95664.38;;;1.27;70.41
50394;BME280;36308;46.312;25.288;2023-12-20T09:51:34;95647.88;;;1.31;70.27
50394;BME280;36308;46.312;25.288;2023-12-20T09:54:05;95662.47;;;1.47;70.65
50394;BME280;36308;46.312;25.288;2023-12-20T09:56:30;95649.63;;;1.51;70.58
50394;BME280;36308;46.312;25.288;2023-12-20T09:58:56;95655.47;;;1.59;69.61
50394;BME280;36308;46.312;25.288;2023-12-20T10:01:23;95634.88;;;1.61;70.23
50394;BME280;36308;46.312;25.288;2023-12-20T10:03:51;95628.34;;;1.71;69.62
50394;BME280;36308;46.312;25.288;2023-12-20T10:06:17;95636.66;;;1.81;70.00
50394;BME280;36308;46.312;25.288;2023-12-20T10:08:42;95621.34;;;1.83;69.58
50394;BME280;36308;46.312;25.288;2023-12-20T10:11:09;95616.59;;;1.92;69.55
50394;BME280;36308;46.312;25.288;2023-12-20T10:13:39;95619.75;;;2.07;70.02
50394;BME280;36308;46.312;25.288;2023-12-20T10:16:06;95619.50;;;2.15;69.22
50394;BME280;36308;46.312;25.288;2023-12-20T10:18:35;95593.81;;;2.16;69.43
50394;BME280;36308;46.312;25.288;2023-12-20T10:21:01;95590.44;;;2.27;69.18
50394;BME280;36308;46.312;25.288;2023-12-20T10:23:29;95594.44;;;2.36;69.31
50394;BME280;36308;46.312;25.288;2023-12-20T10:25:59;95590.66;;;2.51;69.30
50394;BME280;36308;46.312;25.288;2023-12-20T10:28:25;95599.91;;;2.67;69.36
50394;BME280;36308;46.312;25.288;2023-12-20T10:30:54;95592.69;;;2.74;68.84
50394;BME280;36308;46.312;25.288;2023-12-20T10:33:28;95587.31;;;2.80;68.23
50394;BME280;36308;46.312;25.288;2023-12-20T10:36:02;95577.50;;;2.81;68.36
50394;BME280;36308;46.312;25.288;2023-12-20T10:41:50;95575.09;;;2.98;68.07
50394;BME280;36308;46.312;25.288;2023-12-20T10:44:44;95570.81;;;2.97;67.92
50394;BME280;36308;46.312;25.288;2023-12-20T10:47:57;95564.69;;;2.96;67.36
50394;BME280;36308;46.312;25.288;2023-12-20T10:50:43;95549.72;;;2.83;67.29
50394;BME280;36308;46.312;25.288;2023-12-20T10:53:30;95552.22;;;2.97;67.47
50394;BME280;36308;46.312;25.288;2023-12-20T10:56:44;95538.38;;;2.95;67.41
50394;BME280;36308;46.312;25.288;2023-12-20T10:59:19;95548.69;;;3.03;67.84
50394;BME280;36308;46.312;25.288;2023-12-20T11:02:25;95541.31;;;3.05;67.48
50394;BME280;36308;46.312;25.288;2023-12-20T11:15:06;95526.81;;;3.19;67.83
50394;BME280;36308;46.312;25.288;2023-12-20T11:18:32;95522.69;;;3.23;67.58
50394;BME280;36308;46.312;25.288;2023-12-20T11:21:58;95519.00;;;3.24;67.48
50394;BME280;36308;46.312;25.288;2023-12-20T11:28:11;95506.00;;;3.35;67.26
50394;BME280;36308;46.312;25.288;2023-12-20T11:30:57;95498.59;;;3.37;66.80
50394;BME280;36308;46.312;25.288;2023-12-20T11:33:26;95504.63;;;3.44;66.70
50394;BME280;36308;46.312;25.288;2023-12-20T11:35:55;95493.66;;;3.40;66.60
50394;BME280;36308;46.312;25.288;2023-12-20T11:38:21;95493.91;;;3.51;66.68
50394;BME280;36308;46.312;25.288;2023-12-20T11:40:48;95482.03;;;3.53;67.13
50394;BME280;36308;46.312;25.288;2023-12-20T11:43:35;95479.50;;;3.58;67.31
50394;BME280;36308;46.312;25.288;2023-12-20T11:46:08;95453.47;;;3.49;66.71
50394;BME280;36308;46.312;25.288;2023-12-20T11:48:36;95471.78;;;3.69;66.83
50394;BME280;36308;46.312;25.288;2023-12-20T11:51:02;95448.31;;;3.66;67.48
50394;BME280;36308;46.312;25.288;2023-12-20T11:53:29;95446.94;;;3.75;67.07
50394;BME280;36308;46.312;25.288;2023-12-20T11:55:56;95458.97;;;3.89;67.67
50394;BME280;36308;46.312;25.288;2023-12-20T11:58:22;95462.09;;;3.98;67.43
50394;BME280;36308;46.312;25.288;2023-12-20T12:00:49;95453.09;;;3.99;67.69
50394;BME280;36308;46.312;25.288;2023-12-20T12:03:15;95463.72;;;4.11;67.49
50394;BME280;36308;46.312;25.288;2023-12-20T12:05:41;95456.91;;;4.15;67.00
50394;BME280;36308;46.312;25.288;2023-12-20T12:08:07;95465.13;;;4.25;66.77
50394;BME280;36308;46.312;25.288;2023-12-20T12:10:33;95453.44;;;4.26;67.26
50394;BME280;36308;46.312;25.288;2023-12-20T12:12:59;95444.53;;;4.32;66.64
50394;BME280;36308;46.312;25.288;2023-12-20T12:15:25;95445.34;;;4.44;66.33
50394;BME280;36308;46.312;25.288;2023-12-20T12:17:54;95432.97;;;4.38;66.96
50394;BME280;36308;46.312;25.288;2023-12-20T12:20:20;95437.00;;;4.53;66.31
50394;BME280;36308;46.312;25.288;2023-12-20T12:22:46;95435.13;;;4.65;66.49
50394;BME280;36308;46.312;25.288;2023-12-20T12:25:16;95438.09;;;4.80;67.06
50394;BME280;36308;46.312;25.288;2023-12-20T12:27:42;95434.34;;;4.93;66.89
50394;BME280;36308;46.312;25.288;2023-12-20T12:30:09;95422.03;;;5.04;66.57
50394;BME280;36308;46.312;25.288;2023-12-20T12:32:36;95416.44;;;5.17;66.60
50394;BME280;36308;46.312;25.288;2023-12-20T12:35:05;95419.50;;;5.26;66.10
50394;BME280;36308;46.312;25.288;2023-12-20T12:37:34;95395.13;;;5.17;65.93
50394;BME280;36308;46.312;25.288;2023-12-20T12:40:00;95405.97;;;5.28;65.71
50394;BME280;36308;46.312;25.288;2023-12-20T12:42:26;95405.47;;;5.31;65.24
50394;BME280;36308;46.312;25.288;2023-12-20T12:44:54;95397.13;;;5.27;65.28
50394;BME280;36308;46.312;25.288;2023-12-20T12:47:20;95402.78;;;5.31;64.89
50394;BME280;36308;46.312;25.288;2023-12-20T12:49:46;95394.22;;;5.29;65.00
50394;BME280;36308;46.312;25.288;2023-12-20T12:52:12;95392.25;;;5.36;65.16
50394;BME280;36308;46.312;25.288;2023-12-20T12:54:37;95399.84;;;5.44;65.20
50394;BME280;36308;46.312;25.288;2023-12-20T12:57:03;95368.25;;;5.36;64.83
50394;BME280;36308;46.312;25.288;2023-12-20T12:59:28;95381.25;;;5.49;64.91
50394;BME280;36308;46.312;25.288;2023-12-20T13:01:54;95385.16;;;5.58;65.12
50394;BME280;36308;46.312;25.288;2023-12-20T13:04:19;95379.81;;;5.58;64.80
50394;BME280;36308;46.312;25.288;2023-12-20T13:06:45;95389.53;;;5.64;64.72
50394;BME280;36308;46.312;25.288;2023-12-20T13:09:12;95382.09;;;5.66;64.57
50394;BME280;36308;46.312;25.288;2023-12-20T13:11:37;95382.09;;;5.66;64.72